KLCI/LCI METAR and TAF weather

Enter ICAO airport designator
Station Type Date Time Source
KLCI METAR 2019/06/19 02:56 UTC NOAA

KLCI 190256Z AUTO 00000KT 10SM CLR 15/14 A2992 RMK AO2 SLP131 T01500139 53003


Station Type Date Time Source
KLCI Decoded METAR 2019/06/19 02:56 UTC NOAA

Laconia, Laconia Municipal Airport, NH, United States (KLCI) 43-34N 071-25W
Jun 18, 2019 - 10:56 PM EDT / 2019.06.19 0256 UTC
Wind: Calm:0
Visibility: 10 mile(s):0
Sky conditions: clear
Temperature: 59.0 F (15.0 C)
Dew Point: 57.0 F (13.9 C)
Relative Humidity: 93%
Pressure (altimeter): 29.92 in. Hg (1013 hPa)
Pressure tendency: 0.01 inches (0.3 hPa) higher than three hours ago
ob: KLCI 190256Z AUTO 00000KT 10SM CLR 15/14 A2992 RMK AO2 SLP131 T01500139 53003
cycle: 3

Station Type Date Time Source
KLCI TAF UTC NOAA

Error!

Example: see airport list